createdAt,value
2023-03-30T08:37:22.656Z,25.10
2023-03-30T08:39:49.450Z,26.58
2023-03-30T08:43:01.383Z,28.02
2023-03-30T08:45:36.671Z,25.60
2023-03-30T08:48:06.534Z,23.40
2023-03-30T08:50:37.481Z,24.45
2023-03-30T08:53:07.044Z,26.23
2023-03-30T08:55:57.366Z,24.40
2023-03-30T08:58:30.465Z,26.98
2023-03-30T09:01:22.594Z,26.83
2023-03-30T09:04:17.136Z,25.75
2023-03-30T09:06:47.327Z,25.23
2023-03-30T09:09:18.709Z,28.63
2023-03-30T09:11:50.295Z,23.95
2023-03-30T09:14:35.297Z,23.05
2023-03-30T09:17:22.825Z,31.90
2023-03-30T09:19:55.343Z,30.60
2023-03-30T09:22:30.984Z,23.40
2023-03-30T09:24:59.521Z,19.17
2023-03-30T09:27:41.250Z,31.65
2023-03-30T09:30:21.081Z,22.60
2023-03-30T09:33:00.899Z,27.58
2023-03-30T09:35:37.109Z,32.83
2023-03-30T09:38:04.267Z,27.27
2023-03-30T09:41:06.627Z,24.38
2023-03-30T09:43:46.292Z,28.92
2023-03-30T09:46:15.237Z,22.25
2023-03-30T09:48:47.127Z,20.27
2023-03-30T09:51:25.525Z,26.58
2023-03-30T09:54:04.366Z,17.85
2023-03-30T09:56:47.686Z,21.17
2023-03-30T09:59:37.516Z,21.02
2023-03-30T10:02:18.750Z,25.27
2023-03-30T10:05:04.348Z,14.82
2023-03-30T10:10:02.659Z,15.88
2023-03-30T10:12:30.940Z,21.30
2023-03-30T10:15:14.334Z,18.65
2023-03-30T10:17:41.755Z,26.13
2023-03-30T10:20:30.770Z,21.27
2023-03-30T10:23:03.209Z,20.60
2023-03-30T10:25:32.763Z,21.02
2023-03-30T10:28:06.297Z,23.33
2023-03-30T10:30:33.594Z,19.33
2023-03-30T10:33:02.546Z,23.13
2023-03-30T10:35:38.243Z,22.63
2023-03-30T10:38:07.869Z,26.55
2023-03-30T10:40:38.200Z,16.13
2023-03-30T10:43:13.373Z,22.55
2023-03-30T10:45:45.879Z,17.97
2023-03-30T10:48:27.783Z,26.17
2023-03-30T10:50:54.582Z,23.58
2023-03-30T10:53:59.726Z,17.05
2023-03-30T10:59:27.743Z,22.63
2023-03-30T11:02:24.032Z,21.45
2023-03-30T11:05:01.030Z,16.27
2023-03-30T11:07:31.275Z,15.95
2023-03-30T11:10:12.165Z,18.77
2023-03-30T11:12:43.932Z,16.33
2023-03-30T11:15:17.928Z,15.68
2023-03-30T11:18:21.959Z,20.88
2023-03-30T11:20:54.766Z,19.50
2023-03-30T11:23:55.417Z,19.83
2023-03-30T11:26:39.556Z,25.45
2023-03-30T11:29:51.984Z,19.23
2023-03-30T11:32:35.732Z,21.30
2023-03-30T11:35:26.586Z,17.15
2023-03-30T11:38:09.577Z,17.67
2023-03-30T11:40:44.829Z,26.02
2023-03-30T11:43:19.232Z,18.63
2023-03-30T11:46:15.639Z,13.10
2023-03-30T11:48:44.948Z,20.10
2023-03-30T11:51:27.738Z,18.83
2023-03-30T11:54:39.685Z,19.33
2023-03-30T11:57:36.974Z,20.80
2023-03-30T12:00:09.705Z,17.58
2023-03-30T12:02:39.398Z,25.92
2023-03-30T12:05:35.557Z,24.23
2023-03-30T12:08:42.614Z,19.20
2023-03-30T12:11:12.168Z,21.30
2023-03-30T12:13:48.629Z,23.70
2023-03-30T12:16:29.127Z,22.92
2023-03-30T12:19:15.549Z,18.23
2023-03-30T12:21:54.066Z,23.60
2023-03-30T12:24:36.890Z,25.10
2023-03-30T12:27:06.178Z,25.27
2023-03-30T12:32:28.433Z,26.20
2023-03-30T12:34:57.532Z,21.63
2023-03-30T12:37:33.567Z,18.27
2023-03-30T12:40:09.183Z,19.88
2023-03-30T12:42:46.387Z,33.92
2023-03-30T12:45:34.522Z,21.88
2023-03-30T12:48:26.500Z,21.38
2023-03-30T12:51:10.028Z,16.45
2023-03-30T12:53:51.131Z,16.67
2023-03-30T12:56:31.459Z,15.30
2023-03-30T12:58:58.328Z,22.45
2023-03-30T13:01:32.004Z,20.25
2023-03-30T13:04:09.253Z,19.42
2023-03-30T13:06:39.230Z,20.55
2023-03-30T13:09:14.851Z,24.58
2023-03-30T13:11:56.579Z,20.83
2023-03-30T13:14:35.884Z,19.20
2023-03-30T13:17:15.985Z,20.58
2023-03-30T13:20:05.072Z,20.60
2023-03-30T13:22:36.388Z,22.67
2023-03-30T13:25:26.073Z,18.92
2023-03-30T13:27:58.791Z,20.33
2023-03-30T13:30:31.261Z,25.38
2023-03-30T13:33:19.348Z,18.85
2023-03-30T13:35:54.814Z,18.20
2023-03-30T13:38:47.573Z,17.80
2023-03-30T13:41:32.607Z,14.02
2023-03-30T13:44:10.731Z,23.95
2023-03-30T13:46:53.485Z,19.73
2023-03-30T13:50:00.622Z,10.07
2023-03-30T13:52:38.303Z,16.45
2023-03-30T13:55:16.100Z,14.73
2023-03-30T13:57:44.698Z,15.18
2023-03-30T14:00:28.553Z,18.08
2023-03-30T14:02:55.467Z,13.40
2023-03-30T14:05:25.137Z,14.90
2023-03-30T14:07:59.457Z,15.50
2023-03-30T14:10:27.381Z,10.60
2023-03-30T14:12:56.661Z,14.90
2023-03-30T14:15:35.177Z,8.70
2023-03-30T14:18:05.424Z,17.83
2023-03-30T14:20:38.394Z,13.18
2023-03-30T14:23:06.073Z,16.33
2023-03-30T14:25:38.345Z,14.88
2023-03-30T14:28:16.937Z,11.50
2023-03-30T14:30:58.791Z,13.10
2023-03-30T14:33:26.397Z,12.38
2023-03-30T14:35:59.249Z,15.15
2023-03-30T14:38:37.697Z,12.35
2023-03-30T14:41:13.747Z,15.32
2023-03-30T14:46:11.703Z,15.23
2023-03-30T14:48:43.117Z,10.82
2023-03-30T14:51:34.228Z,9.35
2023-03-30T14:54:02.233Z,15.43
2023-03-30T14:56:29.788Z,10.35
2023-03-30T14:58:57.398Z,13.32
2023-03-30T15:01:32.246Z,17.00
2023-03-30T15:04:10.414Z,11.45
2023-03-30T15:06:38.736Z,10.40
2023-03-30T15:09:14.262Z,13.00
2023-03-30T15:11:41.424Z,12.57
2023-03-30T15:14:13.494Z,12.25
2023-03-30T15:16:40.835Z,13.90
2023-03-30T15:19:30.576Z,13.68
2023-03-30T15:22:03.125Z,15.32
2023-03-30T15:24:35.670Z,9.18
2023-03-30T15:27:08.561Z,11.88
2023-03-30T15:29:35.425Z,9.32
2023-03-30T15:32:15.197Z,10.35
2023-03-30T15:35:18.685Z,10.13
2023-03-30T15:38:13.387Z,8.63
2023-03-30T15:40:45.342Z,14.20
2023-03-30T15:43:25.196Z,8.23
2023-03-30T15:46:05.039Z,13.55
2023-03-30T15:48:41.473Z,8.65
2023-03-30T15:51:14.467Z,12.18
2023-03-30T15:53:43.177Z,14.88
2023-03-30T15:56:17.286Z,10.50
2023-03-30T15:58:44.345Z,13.15
2023-03-30T16:01:16.962Z,13.85
2023-03-30T16:03:56.713Z,13.65
2023-03-30T16:06:24.021Z,11.10
2023-03-30T16:08:51.160Z,12.13
2023-03-30T16:11:18.740Z,14.93
2023-03-30T16:13:47.839Z,11.25
2023-03-30T16:16:15.956Z,12.43
2023-03-30T16:18:43.002Z,13.77
2023-03-30T16:21:11.001Z,16.55
2023-03-30T16:23:38.573Z,11.73
2023-03-30T16:26:08.067Z,11.50
2023-03-30T16:28:35.315Z,22.50
2023-03-30T16:31:10.079Z,18.63
2023-03-30T16:33:36.934Z,13.90
2023-03-30T16:36:03.953Z,16.77
2023-03-30T16:38:30.785Z,13.02
2023-03-30T16:40:59.952Z,13.88
2023-03-30T16:43:27.381Z,16.55
2023-03-30T16:45:54.335Z,14.07
2023-03-30T16:48:21.903Z,15.57
2023-03-30T16:50:58.033Z,16.90
2023-03-30T16:53:24.938Z,15.02
2023-03-30T16:55:51.762Z,15.48
2023-03-30T16:58:18.590Z,16.77
2023-03-30T17:00:50.936Z,14.82
2023-03-30T17:03:19.255Z,18.58
2023-03-30T17:05:48.401Z,11.02
2023-03-30T17:08:23.653Z,15.60
2023-03-30T17:10:52.427Z,13.85
2023-03-30T17:13:19.580Z,15.88
2023-03-30T17:15:46.742Z,14.90
2023-03-30T17:18:20.122Z,20.50
2023-03-30T17:20:52.123Z,13.80
2023-03-30T17:23:20.152Z,20.25
2023-03-30T17:25:49.331Z,15.15
2023-03-30T17:28:25.250Z,17.58
2023-03-30T17:30:54.510Z,17.20
2023-03-30T17:33:21.657Z,13.43
2023-03-30T17:35:54.332Z,17.85
2023-03-30T17:38:21.893Z,10.35
2023-03-30T17:40:49.492Z,13.15
2023-03-30T17:43:16.473Z,15.95
2023-03-30T17:45:44.274Z,15.35
2023-03-30T17:48:13.523Z,17.65
2023-03-30T17:50:43.648Z,21.20
2023-03-30T17:53:15.297Z,14.10
2023-03-30T17:55:42.523Z,15.48
2023-03-30T17:58:34.183Z,18.27
2023-03-30T18:01:03.513Z,14.40
2023-03-30T18:03:31.471Z,13.63
2023-03-30T18:06:00.466Z,19.55
2023-03-30T18:08:28.544Z,15.55
2023-03-30T18:10:59.460Z,19.15
2023-03-30T18:13:27.747Z,18.88
2023-03-30T18:15:56.669Z,12.73
2023-03-30T18:18:26.327Z,20.95
2023-03-30T18:20:54.268Z,14.82
2023-03-30T18:23:21.977Z,18.45
2023-03-30T18:25:49.439Z,16.52
2023-03-30T18:28:17.703Z,17.13
2023-03-30T18:30:45.103Z,16.52
2023-03-30T18:33:12.273Z,22.60
2023-03-30T18:35:39.316Z,17.08
2023-03-30T18:38:06.788Z,17.42
2023-03-30T18:40:37.363Z,17.73
2023-03-30T18:43:04.986Z,17.75
2023-03-30T18:45:31.900Z,20.98
2023-03-30T18:47:59.906Z,15.45
2023-03-30T18:50:41.506Z,21.17
2023-03-30T18:53:16.678Z,19.42
2023-03-30T18:55:46.033Z,19.20
2023-03-30T18:58:21.200Z,19.27
2023-03-30T19:00:49.704Z,18.03
2023-03-30T19:03:17.113Z,15.40
2023-03-30T19:05:45.032Z,19.98
2023-03-30T19:08:13.771Z,14.20
2023-03-30T19:10:42.515Z,18.73
2023-03-30T19:13:13.392Z,14.75
2023-03-30T19:15:40.750Z,16.15
2023-03-30T19:18:08.509Z,16.33
2023-03-30T19:20:39.675Z,13.38
2023-03-30T19:23:07.559Z,17.20
2023-03-30T19:25:34.420Z,20.90
2023-03-30T19:28:03.869Z,19.17
2023-03-30T19:30:33.721Z,19.25
2023-03-30T19:33:05.821Z,23.55
2023-03-30T19:35:33.812Z,15.93
2023-03-30T19:38:00.833Z,18.40
2023-03-30T19:40:27.987Z,16.95
2023-03-30T19:42:54.841Z,16.77
2023-03-30T19:45:23.661Z,21.15
2023-03-30T19:47:52.169Z,13.93
2023-03-30T19:50:20.597Z,20.58
2023-03-30T19:52:50.138Z,16.10
2023-03-30T19:55:19.653Z,16.23
2023-03-30T19:57:46.890Z,15.80
2023-03-30T20:00:16.195Z,16.45
2023-03-30T20:02:45.783Z,17.38
2023-03-30T20:05:13.343Z,17.35
2023-03-30T20:07:40.889Z,11.90
2023-03-30T20:10:09.867Z,19.10
2023-03-30T20:12:36.979Z,16.05
2023-03-30T20:15:06.189Z,14.90
2023-03-30T20:17:34.269Z,15.45
2023-03-30T20:20:07.100Z,14.98
2023-03-30T20:22:36.162Z,16.00
2023-03-30T20:25:04.853Z,13.07
2023-03-30T20:27:33.645Z,16.00
2023-03-30T20:30:01.614Z,19.77
2023-03-30T20:32:28.509Z,11.93
2023-03-30T20:34:55.316Z,17.17
2023-03-30T20:37:22.322Z,14.48
2023-03-30T20:39:52.132Z,17.45
2023-03-30T20:42:26.023Z,14.20
2023-03-30T20:44:53.548Z,15.73
2023-03-30T20:47:26.141Z,16.05
2023-03-30T20:49:55.828Z,12.35
2023-03-30T20:52:23.962Z,11.80
2023-03-30T20:54:52.507Z,17.73
2023-03-30T20:57:20.827Z,14.52
2023-03-30T20:59:48.189Z,18.00
2023-03-30T21:02:16.377Z,16.27
2023-03-30T21:04:44.307Z,14.93
2023-03-30T21:07:12.257Z,21.17
2023-03-30T21:09:39.461Z,15.73
2023-03-30T21:12:07.059Z,11.52
2023-03-30T21:14:33.939Z,11.85
2023-03-30T21:17:00.919Z,15.30
2023-03-30T21:19:27.750Z,16.85
2023-03-30T21:21:54.537Z,16.88
2023-03-30T21:24:21.476Z,15.30
2023-03-30T21:26:48.697Z,11.30
2023-03-30T21:29:15.612Z,18.80
2023-03-30T21:31:42.509Z,16.13
2023-03-30T21:34:10.811Z,15.02
2023-03-30T21:36:37.907Z,18.42
2023-03-30T21:39:04.912Z,18.27
2023-03-30T21:41:31.916Z,13.45
2023-03-30T21:43:58.819Z,18.65
2023-03-30T21:46:26.918Z,12.85
2023-03-30T21:48:54.600Z,19.83
2023-03-30T21:51:23.189Z,15.93
2023-03-30T21:53:52.279Z,17.30
2023-03-30T21:56:22.384Z,12.32
2023-03-30T21:58:49.976Z,17.73
2023-03-30T22:01:17.968Z,15.48
2023-03-30T22:03:46.102Z,10.68
2023-03-30T22:06:16.282Z,15.43
2023-03-30T22:08:45.512Z,16.55
2023-03-30T22:11:18.385Z,12.07
2023-03-30T22:13:47.577Z,12.73
2023-03-30T22:16:24.280Z,9.80
2023-03-30T22:18:51.913Z,9.60
2023-03-30T22:21:24.814Z,15.60
2023-03-30T22:23:52.985Z,11.55
2023-03-30T22:26:19.812Z,12.75
2023-03-30T22:28:47.063Z,12.48
2023-03-30T22:31:15.769Z,12.95
2023-03-30T22:33:42.953Z,13.82
2023-03-30T22:36:20.724Z,12.32
2023-03-30T22:38:49.732Z,13.02
2023-03-30T22:41:18.719Z,7.85
2023-03-30T22:43:46.927Z,10.30
2023-03-30T22:46:13.752Z,13.02
2023-03-30T22:48:41.597Z,11.15
2023-03-30T22:51:08.807Z,11.95
2023-03-30T22:53:35.777Z,11.20
2023-03-30T22:56:02.699Z,14.85
2023-03-30T22:58:29.840Z,17.13
2023-03-30T23:01:01.241Z,13.63
2023-03-30T23:03:28.543Z,10.80
2023-03-30T23:05:56.250Z,18.92
2023-03-30T23:08:24.301Z,12.55
2023-03-30T23:10:53.941Z,13.68
2023-03-30T23:13:20.707Z,16.83
2023-03-30T23:15:48.760Z,14.93
2023-03-30T23:18:16.144Z,15.05
2023-03-30T23:20:46.695Z,14.23
2023-03-30T23:23:14.864Z,19.13
2023-03-30T23:25:51.799Z,13.85
2023-03-30T23:28:19.216Z,15.73
2023-03-30T23:30:46.408Z,11.88
2023-03-30T23:33:13.638Z,16.73
2023-03-30T23:35:47.655Z,15.70
2023-03-30T23:38:14.496Z,13.23
2023-03-30T23:40:41.568Z,17.95
2023-03-30T23:43:08.452Z,17.08
2023-03-30T23:45:35.541Z,19.40
2023-03-30T23:48:02.691Z,18.17
2023-03-30T23:50:29.532Z,16.67
2023-03-30T23:52:56.359Z,11.93
2023-03-30T23:55:24.553Z,18.27
2023-03-30T23:57:51.496Z,18.98
